sensor_id;sensor_type;location;lat;lon;timestamp;P1;durP1;ratioP1;P2;durP2;ratioP2
18659;SDS011;9459;50.254;19.014;2023-07-24T00:00:08;5.18;;;3.47;;
18659;SDS011;9459;50.254;19.014;2023-07-24T00:02:57;4.82;;;3.17;;
18659;SDS011;9459;50.254;19.014;2023-07-24T00:05:26;4.10;;;3.40;;
18659;SDS011;9459;50.254;19.014;2023-07-24T00:07:56;3.97;;;2.70;;
18659;SDS011;9459;50.254;19.014;2023-07-24T00:10:24;4.53;;;3.05;;
18659;SDS011;9459;50.254;19.014;2023-07-24T00:12:53;4.07;;;2.92;;
18659;SDS011;9459;50.254;19.014;2023-07-24T00:15:21;3.83;;;3.13;;
18659;SDS011;9459;50.254;19.014;2023-07-24T00:17:50;6.63;;;3.17;;
18659;SDS011;9459;50.254;19.014;2023-07-24T00:20:18;5.40;;;3.22;;
18659;SDS011;9459;50.254;19.014;2023-07-24T00:22:47;6.40;;;3.20;;
18659;SDS011;9459;50.254;19.014;2023-07-24T00:25:17;5.78;;;4.13;;
18659;SDS011;9459;50.254;19.014;2023-07-24T00:27:45;5.53;;;3.50;;
18659;SDS011;9459;50.254;19.014;2023-07-24T00:30:14;4.50;;;3.33;;
18659;SDS011;9459;50.254;19.014;2023-07-24T00:32:42;5.40;;;3.85;;
18659;SDS011;9459;50.254;19.014;2023-07-24T00:35:10;7.18;;;4.00;;
18659;SDS011;9459;50.254;19.014;2023-07-24T00:37:39;6.20;;;4.13;;
18659;SDS011;9459;50.254;19.014;2023-07-24T00:40:08;5.45;;;3.90;;
18659;SDS011;9459;50.254;19.014;2023-07-24T00:42:38;5.75;;;3.85;;
18659;SDS011;9459;50.254;19.014;2023-07-24T00:45:07;5.55;;;3.85;;
18659;SDS011;9459;50.254;19.014;2023-07-24T00:47:36;5.60;;;3.63;;
18659;SDS011;9459;50.254;19.014;2023-07-24T00:50:05;5.10;;;3.45;;
18659;SDS011;9459;50.254;19.014;2023-07-24T00:52:35;5.57;;;3.63;;
18659;SDS011;9459;50.254;19.014;2023-07-24T00:55:03;5.50;;;3.80;;
18659;SDS011;9459;50.254;19.014;2023-07-24T00:57:32;6.32;;;4.68;;
18659;SDS011;9459;50.254;19.014;2023-07-24T01:00:02;6.72;;;4.60;;
18659;SDS011;9459;50.254;19.014;2023-07-24T01:02:31;7.25;;;4.60;;
18659;SDS011;9459;50.254;19.014;2023-07-24T01:05:00;8.85;;;4.65;;
18659;SDS011;9459;50.254;19.014;2023-07-24T01:07:28;7.07;;;4.35;;
18659;SDS011;9459;50.254;19.014;2023-07-24T01:09:57;6.25;;;4.13;;
18659;SDS011;9459;50.254;19.014;2023-07-24T01:12:27;5.70;;;3.88;;
18659;SDS011;9459;50.254;19.014;2023-07-24T01:15:03;7.97;;;4.22;;
18659;SDS011;9459;50.254;19.014;2023-07-24T01:17:39;4.47;;;3.70;;
18659;SDS011;9459;50.254;19.014;2023-07-24T01:20:11;6.68;;;4.50;;
18659;SDS011;9459;50.254;19.014;2023-07-24T01:22:45;10.07;;;4.57;;
18659;SDS011;9459;50.254;19.014;2023-07-24T01:25:23;5.65;;;4.30;;
18659;SDS011;9459;50.254;19.014;2023-07-24T01:27:57;6.78;;;4.60;;
18659;SDS011;9459;50.254;19.014;2023-07-24T01:30:26;6.10;;;4.38;;
18659;SDS011;9459;50.254;19.014;2023-07-24T01:32:54;6.80;;;4.35;;
18659;SDS011;9459;50.254;19.014;2023-07-24T01:35:23;5.45;;;4.03;;
18659;SDS011;9459;50.254;19.014;2023-07-24T01:37:52;5.30;;;4.13;;
18659;SDS011;9459;50.254;19.014;2023-07-24T01:40:20;5.97;;;4.13;;
18659;SDS011;9459;50.254;19.014;2023-07-24T01:42:49;6.15;;;4.30;;
18659;SDS011;9459;50.254;19.014;2023-07-24T01:45:20;5.55;;;3.80;;
18659;SDS011;9459;50.254;19.014;2023-07-24T01:47:48;6.50;;;4.07;;
18659;SDS011;9459;50.254;19.014;2023-07-24T01:50:17;5.82;;;3.95;;
18659;SDS011;9459;50.254;19.014;2023-07-24T01:52:45;7.25;;;4.30;;
18659;SDS011;9459;50.254;19.014;2023-07-24T01:55:14;6.22;;;4.60;;
18659;SDS011;9459;50.254;19.014;2023-07-24T01:57:42;6.43;;;4.13;;
18659;SDS011;9459;50.254;19.014;2023-07-24T02:00:11;7.05;;;4.57;;
18659;SDS011;9459;50.254;19.014;2023-07-24T02:02:41;6.22;;;4.28;;
18659;SDS011;9459;50.254;19.014;2023-07-24T02:05:10;7.95;;;4.90;;
18659;SDS011;9459;50.254;19.014;2023-07-24T02:07:38;8.55;;;5.15;;
18659;SDS011;9459;50.254;19.014;2023-07-24T02:10:07;9.88;;;4.72;;
18659;SDS011;9459;50.254;19.014;2023-07-24T02:12:36;6.50;;;4.65;;
18659;SDS011;9459;50.254;19.014;2023-07-24T02:15:05;9.02;;;4.90;;
18659;SDS011;9459;50.254;19.014;2023-07-24T02:17:34;6.55;;;4.57;;
18659;SDS011;9459;50.254;19.014;2023-07-24T02:20:05;7.75;;;4.70;;
18659;SDS011;9459;50.254;19.014;2023-07-24T02:22:35;7.60;;;4.50;;
18659;SDS011;9459;50.254;19.014;2023-07-24T02:25:03;6.95;;;4.40;;
18659;SDS011;9459;50.254;19.014;2023-07-24T02:27:32;8.20;;;4.78;;
18659;SDS011;9459;50.254;19.014;2023-07-24T02:30:01;8.40;;;4.78;;
18659;SDS011;9459;50.254;19.014;2023-07-24T02:32:30;8.55;;;4.68;;
18659;SDS011;9459;50.254;19.014;2023-07-24T02:34:59;7.85;;;4.35;;
18659;SDS011;9459;50.254;19.014;2023-07-24T02:37:29;8.52;;;5.47;;
18659;SDS011;9459;50.254;19.014;2023-07-24T02:39:57;6.85;;;4.35;;
18659;SDS011;9459;50.254;19.014;2023-07-24T02:42:26;6.03;;;4.32;;
18659;SDS011;9459;50.254;19.014;2023-07-24T02:44:54;6.68;;;4.20;;
18659;SDS011;9459;50.254;19.014;2023-07-24T02:47:23;6.90;;;3.78;;
18659;SDS011;9459;50.254;19.014;2023-07-24T02:49:51;5.55;;;4.03;;
18659;SDS011;9459;50.254;19.014;2023-07-24T02:52:20;6.15;;;4.35;;
18659;SDS011;9459;50.254;19.014;2023-07-24T02:54:49;7.13;;;4.25;;
18659;SDS011;9459;50.254;19.014;2023-07-24T02:57:18;4.82;;;3.63;;
18659;SDS011;9459;50.254;19.014;2023-07-24T02:59:47;5.22;;;4.15;;
18659;SDS011;9459;50.254;19.014;2023-07-24T03:02:15;5.95;;;4.25;;
18659;SDS011;9459;50.254;19.014;2023-07-24T03:04:44;6.35;;;4.57;;
18659;SDS011;9459;50.254;19.014;2023-07-24T03:07:12;5.75;;;4.47;;
18659;SDS011;9459;50.254;19.014;2023-07-24T03:09:41;6.60;;;4.18;;
18659;SDS011;9459;50.254;19.014;2023-07-24T03:12:10;5.85;;;4.32;;
18659;SDS011;9459;50.254;19.014;2023-07-24T03:14:39;6.07;;;4.45;;
18659;SDS011;9459;50.254;19.014;2023-07-24T03:17:07;6.75;;;4.10;;
18659;SDS011;9459;50.254;19.014;2023-07-24T03:19:35;5.57;;;4.20;;
18659;SDS011;9459;50.254;19.014;2023-07-24T03:22:04;6.43;;;4.35;;
18659;SDS011;9459;50.254;19.014;2023-07-24T03:24:33;5.88;;;4.15;;
18659;SDS011;9459;50.254;19.014;2023-07-24T03:27:04;7.65;;;4.40;;
18659;SDS011;9459;50.254;19.014;2023-07-24T03:29:34;8.38;;;4.53;;
18659;SDS011;9459;50.254;19.014;2023-07-24T03:32:04;8.35;;;5.13;;
18659;SDS011;9459;50.254;19.014;2023-07-24T03:34:33;7.43;;;4.43;;
18659;SDS011;9459;50.254;19.014;2023-07-24T03:37:01;6.40;;;4.50;;
18659;SDS011;9459;50.254;19.014;2023-07-24T03:39:30;6.63;;;4.47;;
18659;SDS011;9459;50.254;19.014;2023-07-24T03:41:59;8.05;;;4.68;;
18659;SDS011;9459;50.254;19.014;2023-07-24T03:44:27;7.20;;;4.65;;
18659;SDS011;9459;50.254;19.014;2023-07-24T03:46:57;5.93;;;4.40;;
18659;SDS011;9459;50.254;19.014;2023-07-24T03:49:25;6.00;;;4.63;;
18659;SDS011;9459;50.254;19.014;2023-07-24T03:51:54;7.75;;;5.13;;
18659;SDS011;9459;50.254;19.014;2023-07-24T03:54:22;8.18;;;4.80;;
18659;SDS011;9459;50.254;19.014;2023-07-24T03:56:51;7.20;;;4.30;;
18659;SDS011;9459;50.254;19.014;2023-07-24T03:59:19;7.50;;;4.97;;
18659;SDS011;9459;50.254;19.014;2023-07-24T04:01:47;7.20;;;4.43;;
18659;SDS011;9459;50.254;19.014;2023-07-24T04:04:17;6.65;;;5.00;;
18659;SDS011;9459;50.254;19.014;2023-07-24T04:06:46;6.93;;;5.05;;
18659;SDS011;9459;50.254;19.014;2023-07-24T04:09:15;6.07;;;5.10;;
18659;SDS011;9459;50.254;19.014;2023-07-24T04:11:43;8.15;;;4.95;;
18659;SDS011;9459;50.254;19.014;2023-07-24T04:14:12;7.22;;;5.07;;
18659;SDS011;9459;50.254;19.014;2023-07-24T04:16:40;7.05;;;4.90;;
18659;SDS011;9459;50.254;19.014;2023-07-24T04:19:09;7.72;;;4.70;;
18659;SDS011;9459;50.254;19.014;2023-07-24T04:21:39;6.35;;;4.43;;
18659;SDS011;9459;50.254;19.014;2023-07-24T04:24:08;6.82;;;4.10;;
18659;SDS011;9459;50.254;19.014;2023-07-24T04:26:36;5.40;;;3.90;;
18659;SDS011;9459;50.254;19.014;2023-07-24T04:29:06;5.95;;;4.55;;
18659;SDS011;9459;50.254;19.014;2023-07-24T04:31:35;7.75;;;4.22;;
18659;SDS011;9459;50.254;19.014;2023-07-24T04:34:03;6.28;;;4.93;;
18659;SDS011;9459;50.254;19.014;2023-07-24T04:36:31;6.65;;;4.82;;
18659;SDS011;9459;50.254;19.014;2023-07-24T04:39:01;8.73;;;4.68;;
18659;SDS011;9459;50.254;19.014;2023-07-24T04:41:30;5.03;;;4.40;;
18659;SDS011;9459;50.254;19.014;2023-07-24T04:43:58;5.28;;;4.32;;
18659;SDS011;9459;50.254;19.014;2023-07-24T04:46:27;6.13;;;4.82;;
18659;SDS011;9459;50.254;19.014;2023-07-24T04:48:56;7.10;;;4.57;;
18659;SDS011;9459;50.254;19.014;2023-07-24T04:51:24;6.15;;;4.40;;
18659;SDS011;9459;50.254;19.014;2023-07-24T04:53:53;6.28;;;4.63;;
18659;SDS011;9459;50.254;19.014;2023-07-24T04:56:23;10.88;;;5.43;;
18659;SDS011;9459;50.254;19.014;2023-07-24T04:58:51;7.35;;;4.80;;
18659;SDS011;9459;50.254;19.014;2023-07-24T05:01:20;7.80;;;4.72;;
18659;SDS011;9459;50.254;19.014;2023-07-24T05:03:48;8.27;;;5.20;;
18659;SDS011;9459;50.254;19.014;2023-07-24T05:06:17;8.18;;;4.85;;
18659;SDS011;9459;50.254;19.014;2023-07-24T05:08:45;7.22;;;5.05;;
18659;SDS011;9459;50.254;19.014;2023-07-24T05:11:14;9.57;;;5.45;;
18659;SDS011;9459;50.254;19.014;2023-07-24T05:13:44;8.48;;;6.03;;
18659;SDS011;9459;50.254;19.014;2023-07-24T05:16:12;7.82;;;5.40;;
18659;SDS011;9459;50.254;19.014;2023-07-24T05:18:41;7.80;;;5.50;;
18659;SDS011;9459;50.254;19.014;2023-07-24T05:21:09;6.43;;;5.43;;
18659;SDS011;9459;50.254;19.014;2023-07-24T05:23:38;6.75;;;4.93;;
18659;SDS011;9459;50.254;19.014;2023-07-24T05:26:06;8.73;;;5.32;;
18659;SDS011;9459;50.254;19.014;2023-07-24T05:28:35;6.15;;;4.65;;
18659;SDS011;9459;50.254;19.014;2023-07-24T05:31:05;8.43;;;5.00;;
18659;SDS011;9459;50.254;19.014;2023-07-24T05:33:34;6.97;;;5.45;;
18659;SDS011;9459;50.254;19.014;2023-07-24T05:36:03;7.25;;;5.53;;
18659;SDS011;9459;50.254;19.014;2023-07-24T05:38:32;7.53;;;5.20;;
18659;SDS011;9459;50.254;19.014;2023-07-24T05:41:01;9.32;;;5.97;;
18659;SDS011;9459;50.254;19.014;2023-07-24T05:43:30;11.48;;;5.82;;
18659;SDS011;9459;50.254;19.014;2023-07-24T05:45:59;7.15;;;5.18;;
18659;SDS011;9459;50.254;19.014;2023-07-24T05:48:29;8.23;;;5.32;;
18659;SDS011;9459;50.254;19.014;2023-07-24T05:50:58;8.37;;;5.47;;
18659;SDS011;9459;50.254;19.014;2023-07-24T05:53:26;6.43;;;5.07;;
18659;SDS011;9459;50.254;19.014;2023-07-24T05:55:58;10.52;;;6.18;;
18659;SDS011;9459;50.254;19.014;2023-07-24T05:58:27;8.88;;;6.03;;
18659;SDS011;9459;50.254;19.014;2023-07-24T06:00:56;10.32;;;5.85;;
18659;SDS011;9459;50.254;19.014;2023-07-24T06:03:24;8.75;;;5.97;;
18659;SDS011;9459;50.254;19.014;2023-07-24T06:05:55;10.82;;;5.72;;
18659;SDS011;9459;50.254;19.014;2023-07-24T06:08:24;8.32;;;5.63;;
18659;SDS011;9459;50.254;19.014;2023-07-24T06:10:52;10.25;;;6.47;;
18659;SDS011;9459;50.254;19.014;2023-07-24T06:13:21;9.77;;;5.80;;
18659;SDS011;9459;50.254;19.014;2023-07-24T06:15:51;7.05;;;5.75;;
18659;SDS011;9459;50.254;19.014;2023-07-24T06:18:20;7.10;;;5.85;;
18659;SDS011;9459;50.254;19.014;2023-07-24T06:20:51;8.27;;;5.97;;
18659;SDS011;9459;50.254;19.014;2023-07-24T06:23:21;7.03;;;5.70;;
18659;SDS011;9459;50.254;19.014;2023-07-24T06:25:50;9.43;;;6.07;;
18659;SDS011;9459;50.254;19.014;2023-07-24T06:28:19;7.38;;;5.72;;
18659;SDS011;9459;50.254;19.014;2023-07-24T06:30:51;9.75;;;5.57;;
18659;SDS011;9459;50.254;19.014;2023-07-24T06:33:20;8.13;;;5.38;;
18659;SDS011;9459;50.254;19.014;2023-07-24T06:35:49;6.63;;;5.18;;
18659;SDS011;9459;50.254;19.014;2023-07-24T06:38:18;7.38;;;5.72;;
18659;SDS011;9459;50.254;19.014;2023-07-24T06:40:50;8.45;;;5.68;;
18659;SDS011;9459;50.254;19.014;2023-07-24T06:43:18;8.83;;;5.77;;
18659;SDS011;9459;50.254;19.014;2023-07-24T06:45:46;6.00;;;4.80;;
18659;SDS011;9459;50.254;19.014;2023-07-24T06:48:16;8.63;;;5.17;;
18659;SDS011;9459;50.254;19.014;2023-07-24T06:50:45;6.78;;;4.68;;
18659;SDS011;9459;50.254;19.014;2023-07-24T06:53:13;7.07;;;4.95;;
18659;SDS011;9459;50.254;19.014;2023-07-24T06:55:42;8.73;;;5.22;;
18659;SDS011;9459;50.254;19.014;2023-07-24T06:58:12;6.38;;;5.15;;
18659;SDS011;9459;50.254;19.014;2023-07-24T07:00:40;6.63;;;5.07;;
18659;SDS011;9459;50.254;19.014;2023-07-24T07:03:09;6.25;;;4.97;;
18659;SDS011;9459;50.254;19.014;2023-07-24T07:05:38;6.65;;;5.15;;
18659;SDS011;9459;50.254;19.014;2023-07-24T07:08:06;7.30;;;5.10;;
18659;SDS011;9459;50.254;19.014;2023-07-24T07:10:35;6.65;;;4.97;;
18659;SDS011;9459;50.254;19.014;2023-07-24T07:13:03;8.60;;;5.15;;
18659;SDS011;9459;50.254;19.014;2023-07-24T07:15:34;6.97;;;5.88;;
18659;SDS011;9459;50.254;19.014;2023-07-24T07:18:03;6.05;;;4.60;;
18659;SDS011;9459;50.254;19.014;2023-07-24T07:20:32;5.60;;;5.05;;
18659;SDS011;9459;50.254;19.014;2023-07-24T07:23:00;6.32;;;5.50;;
18659;SDS011;9459;50.254;19.014;2023-07-24T07:25:29;5.32;;;4.65;;
18659;SDS011;9459;50.254;19.014;2023-07-24T07:27:57;5.53;;;4.68;;
18659;SDS011;9459;50.254;19.014;2023-07-24T07:30:26;5.97;;;4.78;;
18659;SDS011;9459;50.254;19.014;2023-07-24T07:32:56;5.20;;;4.53;;
18659;SDS011;9459;50.254;19.014;2023-07-24T07:37:53;5.90;;;4.18;;
18659;SDS011;9459;50.254;19.014;2023-07-24T07:40:22;5.88;;;5.28;;
18659;SDS011;9459;50.254;19.014;2023-07-24T07:42:51;5.35;;;4.72;;
18659;SDS011;9459;50.254;19.014;2023-07-24T07:45:19;6.50;;;4.88;;
18659;SDS011;9459;50.254;19.014;2023-07-24T07:47:48;7.70;;;4.85;;
18659;SDS011;9459;50.254;19.014;2023-07-24T07:50:18;7.00;;;5.22;;
18659;SDS011;9459;50.254;19.014;2023-07-24T07:52:49;7.35;;;5.30;;
18659;SDS011;9459;50.254;19.014;2023-07-24T07:55:18;6.32;;;5.32;;
18659;SDS011;9459;50.254;19.014;2023-07-24T07:57:49;7.18;;;5.07;;
18659;SDS011;9459;50.254;19.014;2023-07-24T08:00:18;6.55;;;5.25;;
18659;SDS011;9459;50.254;19.014;2023-07-24T08:02:47;7.53;;;5.28;;
18659;SDS011;9459;50.254;19.014;2023-07-24T08:05:16;7.65;;;5.75;;
18659;SDS011;9459;50.254;19.014;2023-07-24T08:07:47;6.40;;;5.32;;
18659;SDS011;9459;50.254;19.014;2023-07-24T08:10:16;7.93;;;4.93;;
18659;SDS011;9459;50.254;19.014;2023-07-24T08:12:44;7.13;;;5.72;;
18659;SDS011;9459;50.254;19.014;2023-07-24T08:15:13;6.68;;;4.80;;
18659;SDS011;9459;50.254;19.014;2023-07-24T08:17:41;6.13;;;5.30;;
18659;SDS011;9459;50.254;19.014;2023-07-24T08:20:10;8.15;;;5.72;;
18659;SDS011;9459;50.254;19.014;2023-07-24T08:22:40;5.88;;;4.57;;
18659;SDS011;9459;50.254;19.014;2023-07-24T08:25:08;6.72;;;5.32;;
18659;SDS011;9459;50.254;19.014;2023-07-24T08:27:37;8.60;;;5.70;;
18659;SDS011;9459;50.254;19.014;2023-07-24T08:30:25;6.65;;;5.57;;
18659;SDS011;9459;50.254;19.014;2023-07-24T08:32:54;8.32;;;5.82;;
18659;SDS011;9459;50.254;19.014;2023-07-24T08:35:23;8.45;;;5.75;;
18659;SDS011;9459;50.254;19.014;2023-07-24T08:37:53;8.55;;;5.70;;
18659;SDS011;9459;50.254;19.014;2023-07-24T08:40:22;6.30;;;4.95;;
18659;SDS011;9459;50.254;19.014;2023-07-24T08:42:50;6.78;;;5.78;;
18659;SDS011;9459;50.254;19.014;2023-07-24T08:45:20;6.38;;;5.15;;
18659;SDS011;9459;50.254;19.014;2023-07-24T08:47:48;7.55;;;5.90;;
18659;SDS011;9459;50.254;19.014;2023-07-24T08:50:17;6.63;;;5.10;;
18659;SDS011;9459;50.254;19.014;2023-07-24T08:52:47;8.35;;;5.80;;
18659;SDS011;9459;50.254;19.014;2023-07-24T08:55:17;6.47;;;5.15;;
18659;SDS011;9459;50.254;19.014;2023-07-24T08:57:45;7.22;;;4.97;;
18659;SDS011;9459;50.254;19.014;2023-07-24T09:00:14;8.77;;;5.18;;
18659;SDS011;9459;50.254;19.014;2023-07-24T09:02:43;6.13;;;5.53;;
18659;SDS011;9459;50.254;19.014;2023-07-24T09:05:12;6.47;;;5.10;;
18659;SDS011;9459;50.254;19.014;2023-07-24T09:07:42;7.18;;;4.93;;
18659;SDS011;9459;50.254;19.014;2023-07-24T09:10:13;7.07;;;6.22;;
18659;SDS011;9459;50.254;19.014;2023-07-24T09:12:43;8.80;;;6.13;;
18659;SDS011;9459;50.254;19.014;2023-07-24T09:15:13;7.63;;;5.93;;
18659;SDS011;9459;50.254;19.014;2023-07-24T09:17:48;6.38;;;5.32;;
18659;SDS011;9459;50.254;19.014;2023-07-24T09:20:18;6.57;;;5.20;;
18659;SDS011;9459;50.254;19.014;2023-07-24T09:22:58;5.45;;;4.95;;
18659;SDS011;9459;50.254;19.014;2023-07-24T09:25:42;6.22;;;5.32;;
18659;SDS011;9459;50.254;19.014;2023-07-24T09:28:13;6.15;;;5.65;;
18659;SDS011;9459;50.254;19.014;2023-07-24T09:30:51;6.00;;;5.40;;
18659;SDS011;9459;50.254;19.014;2023-07-24T09:33:21;8.23;;;5.97;;
18659;SDS011;9459;50.254;19.014;2023-07-24T09:35:56;6.32;;;5.70;;
18659;SDS011;9459;50.254;19.014;2023-07-24T09:38:26;7.03;;;6.30;;
18659;SDS011;9459;50.254;19.014;2023-07-24T09:40:55;5.90;;;5.40;;
18659;SDS011;9459;50.254;19.014;2023-07-24T09:45:58;8.93;;;5.97;;
18659;SDS011;9459;50.254;19.014;2023-07-24T09:48:26;7.82;;;6.13;;
18659;SDS011;9459;50.254;19.014;2023-07-24T09:50:59;5.78;;;5.28;;
18659;SDS011;9459;50.254;19.014;2023-07-24T09:53:31;6.35;;;5.72;;
18659;SDS011;9459;50.254;19.014;2023-07-24T09:56:02;6.38;;;5.60;;
18659;SDS011;9459;50.254;19.014;2023-07-24T09:58:33;6.07;;;5.47;;
18659;SDS011;9459;50.254;19.014;2023-07-24T10:01:03;6.55;;;5.90;;
18659;SDS011;9459;50.254;19.014;2023-07-24T10:03:34;6.32;;;5.72;;
18659;SDS011;9459;50.254;19.014;2023-07-24T10:06:05;6.70;;;6.00;;
18659;SDS011;9459;50.254;19.014;2023-07-24T10:08:35;6.97;;;5.63;;
18659;SDS011;9459;50.254;19.014;2023-07-24T10:11:04;6.93;;;6.22;;
18659;SDS011;9459;50.254;19.014;2023-07-24T10:13:34;7.67;;;6.57;;
18659;SDS011;9459;50.254;19.014;2023-07-24T10:16:04;6.80;;;6.20;;
18659;SDS011;9459;50.254;19.014;2023-07-24T10:18:34;7.28;;;6.43;;
18659;SDS011;9459;50.254;19.014;2023-07-24T10:21:04;7.45;;;6.07;;
18659;SDS011;9459;50.254;19.014;2023-07-24T10:23:33;10.02;;;5.93;;
18659;SDS011;9459;50.254;19.014;2023-07-24T10:26:03;7.72;;;6.28;;
18659;SDS011;9459;50.254;19.014;2023-07-24T10:28:32;6.65;;;6.05;;
18659;SDS011;9459;50.254;19.014;2023-07-24T10:31:03;7.25;;;6.25;;
18659;SDS011;9459;50.254;19.014;2023-07-24T10:33:35;7.35;;;6.20;;
18659;SDS011;9459;50.254;19.014;2023-07-24T10:36:12;9.15;;;7.10;;
18659;SDS011;9459;50.254;19.014;2023-07-24T10:38:46;9.48;;;7.10;;
18659;SDS011;9459;50.254;19.014;2023-07-24T10:41:19;10.32;;;6.88;;
18659;SDS011;9459;50.254;19.014;2023-07-24T10:43:48;7.63;;;6.78;;
18659;SDS011;9459;50.254;19.014;2023-07-24T10:48:49;8.40;;;6.85;;
18659;SDS011;9459;50.254;19.014;2023-07-24T10:51:18;10.18;;;7.03;;
18659;SDS011;9459;50.254;19.014;2023-07-24T10:53:48;8.50;;;6.83;;
18659;SDS011;9459;50.254;19.014;2023-07-24T10:56:17;8.45;;;6.85;;
18659;SDS011;9459;50.254;19.014;2023-07-24T10:58:46;9.93;;;7.35;;
18659;SDS011;9459;50.254;19.014;2023-07-24T11:01:14;8.00;;;6.60;;
18659;SDS011;9459;50.254;19.014;2023-07-24T11:03:44;7.47;;;6.50;;
18659;SDS011;9459;50.254;19.014;2023-07-24T11:06:14;8.00;;;7.00;;
18659;SDS011;9459;50.254;19.014;2023-07-24T11:08:50;8.20;;;7.13;;
18659;SDS011;9459;50.254;19.014;2023-07-24T11:11:19;9.35;;;7.55;;
18659;SDS011;9459;50.254;19.014;2023-07-24T11:13:47;8.88;;;6.43;;
18659;SDS011;9459;50.254;19.014;2023-07-24T11:16:16;8.93;;;6.97;;
18659;SDS011;9459;50.254;19.014;2023-07-24T11:18:47;10.75;;;6.32;;
18659;SDS011;9459;50.254;19.014;2023-07-24T11:21:21;9.48;;;6.80;;
18659;SDS011;9459;50.254;19.014;2023-07-24T11:23:50;8.88;;;6.78;;
18659;SDS011;9459;50.254;19.014;2023-07-24T11:26:20;9.15;;;6.38;;
18659;SDS011;9459;50.254;19.014;2023-07-24T11:28:50;8.47;;;6.60;;
18659;SDS011;9459;50.254;19.014;2023-07-24T11:31:19;7.50;;;6.18;;
18659;SDS011;9459;50.254;19.014;2023-07-24T11:33:50;9.05;;;6.80;;
18659;SDS011;9459;50.254;19.014;2023-07-24T11:36:20;10.07;;;6.22;;
18659;SDS011;9459;50.254;19.014;2023-07-24T11:38:50;10.87;;;6.53;;
18659;SDS011;9459;50.254;19.014;2023-07-24T11:41:18;13.60;;;7.28;;
18659;SDS011;9459;50.254;19.014;2023-07-24T11:43:47;11.65;;;6.90;;
18659;SDS011;9459;50.254;19.014;2023-07-24T11:46:23;9.15;;;7.20;;
18659;SDS011;9459;50.254;19.014;2023-07-24T11:48:54;8.60;;;7.35;;
18659;SDS011;9459;50.254;19.014;2023-07-24T11:51:25;8.57;;;7.25;;
18659;SDS011;9459;50.254;19.014;2023-07-24T11:54:04;7.70;;;6.90;;
18659;SDS011;9459;50.254;19.014;2023-07-24T11:56:35;8.32;;;6.57;;
18659;SDS011;9459;50.254;19.014;2023-07-24T11:59:10;11.38;;;7.47;;
18659;SDS011;9459;50.254;19.014;2023-07-24T12:01:39;7.85;;;6.60;;
18659;SDS011;9459;50.254;19.014;2023-07-24T12:04:09;8.05;;;6.22;;
18659;SDS011;9459;50.254;19.014;2023-07-24T12:06:37;8.43;;;7.03;;
18659;SDS011;9459;50.254;19.014;2023-07-24T12:09:06;8.05;;;6.95;;
18659;SDS011;9459;50.254;19.014;2023-07-24T12:11:38;8.77;;;6.75;;
18659;SDS011;9459;50.254;19.014;2023-07-24T12:14:11;8.98;;;6.90;;
18659;SDS011;9459;50.254;19.014;2023-07-24T12:16:41;9.80;;;6.73;;
18659;SDS011;9459;50.254;19.014;2023-07-24T12:19:11;7.90;;;6.45;;
18659;SDS011;9459;50.254;19.014;2023-07-24T12:21:39;8.30;;;6.78;;
18659;SDS011;9459;50.254;19.014;2023-07-24T12:24:08;8.00;;;6.85;;
18659;SDS011;9459;50.254;19.014;2023-07-24T12:26:36;9.93;;;7.57;;
18659;SDS011;9459;50.254;19.014;2023-07-24T12:29:05;8.55;;;6.55;;
18659;SDS011;9459;50.254;19.014;2023-07-24T12:31:33;8.00;;;6.88;;
18659;SDS011;9459;50.254;19.014;2023-07-24T12:34:03;9.13;;;6.97;;
18659;SDS011;9459;50.254;19.014;2023-07-24T12:36:32;8.88;;;7.72;;
18659;SDS011;9459;50.254;19.014;2023-07-24T12:39:01;8.00;;;6.82;;
18659;SDS011;9459;50.254;19.014;2023-07-24T12:41:30;10.60;;;7.25;;
18659;SDS011;9459;50.254;19.014;2023-07-24T12:43:59;9.50;;;7.22;;
18659;SDS011;9459;50.254;19.014;2023-07-24T12:46:27;8.88;;;7.00;;
18659;SDS011;9459;50.254;19.014;2023-07-24T12:48:56;10.02;;;7.95;;
18659;SDS011;9459;50.254;19.014;2023-07-24T12:51:24;10.20;;;7.55;;
18659;SDS011;9459;50.254;19.014;2023-07-24T12:53:55;10.57;;;8.35;;
18659;SDS011;9459;50.254;19.014;2023-07-24T12:56:41;11.13;;;7.90;;
18659;SDS011;9459;50.254;19.014;2023-07-24T12:59:10;9.13;;;7.25;;
18659;SDS011;9459;50.254;19.014;2023-07-24T13:01:39;9.93;;;7.38;;
18659;SDS011;9459;50.254;19.014;2023-07-24T13:04:07;9.55;;;7.38;;
18659;SDS011;9459;50.254;19.014;2023-07-24T13:06:36;9.52;;;7.80;;
18659;SDS011;9459;50.254;19.014;2023-07-24T13:09:07;10.80;;;8.23;;
18659;SDS011;9459;50.254;19.014;2023-07-24T13:11:35;10.65;;;8.13;;
18659;SDS011;9459;50.254;19.014;2023-07-24T13:14:04;9.00;;;7.53;;
18659;SDS011;9459;50.254;19.014;2023-07-24T13:16:32;12.68;;;7.85;;
18659;SDS011;9459;50.254;19.014;2023-07-24T13:19:01;11.38;;;8.80;;
18659;SDS011;9459;50.254;19.014;2023-07-24T13:21:29;10.48;;;7.82;;
18659;SDS011;9459;50.254;19.014;2023-07-24T13:23:58;14.60;;;8.52;;
18659;SDS011;9459;50.254;19.014;2023-07-24T13:26:28;11.02;;;7.53;;
18659;SDS011;9459;50.254;19.014;2023-07-24T13:28:57;8.75;;;7.72;;
18659;SDS011;9459;50.254;19.014;2023-07-24T13:31:26;9.38;;;7.45;;
18659;SDS011;9459;50.254;19.014;2023-07-24T13:33:55;10.27;;;8.52;;
18659;SDS011;9459;50.254;19.014;2023-07-24T13:36:24;9.48;;;8.13;;
18659;SDS011;9459;50.254;19.014;2023-07-24T13:38:53;11.63;;;9.30;;
18659;SDS011;9459;50.254;19.014;2023-07-24T13:41:21;10.93;;;8.63;;
18659;SDS011;9459;50.254;19.014;2023-07-24T13:43:52;9.35;;;7.93;;
18659;SDS011;9459;50.254;19.014;2023-07-24T13:46:20;12.43;;;8.30;;
18659;SDS011;9459;50.254;19.014;2023-07-24T13:48:49;11.30;;;8.52;;
18659;SDS011;9459;50.254;19.014;2023-07-24T13:51:17;12.55;;;7.88;;
18659;SDS011;9459;50.254;19.014;2023-07-24T13:53:46;10.48;;;8.15;;
18659;SDS011;9459;50.254;19.014;2023-07-24T13:56:16;8.83;;;7.17;;
18659;SDS011;9459;50.254;19.014;2023-07-24T13:58:45;10.15;;;7.90;;
18659;SDS011;9459;50.254;19.014;2023-07-24T14:01:15;13.00;;;8.40;;
18659;SDS011;9459;50.254;19.014;2023-07-24T14:03:43;11.30;;;8.23;;
18659;SDS011;9459;50.254;19.014;2023-07-24T14:06:12;11.48;;;8.68;;
18659;SDS011;9459;50.254;19.014;2023-07-24T14:08:41;9.80;;;8.30;;
18659;SDS011;9459;50.254;19.014;2023-07-24T14:11:09;10.82;;;8.55;;
18659;SDS011;9459;50.254;19.014;2023-07-24T14:13:38;10.55;;;8.52;;
18659;SDS011;9459;50.254;19.014;2023-07-24T14:16:06;10.50;;;7.85;;
18659;SDS011;9459;50.254;19.014;2023-07-24T14:18:37;10.95;;;8.35;;
18659;SDS011;9459;50.254;19.014;2023-07-24T14:21:05;9.48;;;7.55;;
18659;SDS011;9459;50.254;19.014;2023-07-24T14:23:34;9.52;;;8.32;;
18659;SDS011;9459;50.254;19.014;2023-07-24T14:26:02;10.93;;;8.43;;
18659;SDS011;9459;50.254;19.014;2023-07-24T14:28:31;10.70;;;8.15;;
18659;SDS011;9459;50.254;19.014;2023-07-24T14:31:00;10.65;;;8.90;;
18659;SDS011;9459;50.254;19.014;2023-07-24T14:33:28;14.80;;;11.75;;
18659;SDS011;9459;50.254;19.014;2023-07-24T14:35:58;13.57;;;9.77;;
18659;SDS011;9459;50.254;19.014;2023-07-24T14:38:27;13.55;;;9.40;;
18659;SDS011;9459;50.254;19.014;2023-07-24T14:40:55;14.15;;;11.30;;
18659;SDS011;9459;50.254;19.014;2023-07-24T14:43:24;14.88;;;10.45;;
18659;SDS011;9459;50.254;19.014;2023-07-24T14:45:52;18.60;;;11.30;;
18659;SDS011;9459;50.254;19.014;2023-07-24T14:48:21;15.30;;;11.50;;
18659;SDS011;9459;50.254;19.014;2023-07-24T14:50:49;15.07;;;10.80;;
18659;SDS011;9459;50.254;19.014;2023-07-24T14:53:19;13.00;;;9.25;;
18659;SDS011;9459;50.254;19.014;2023-07-24T14:55:47;13.05;;;8.98;;
18659;SDS011;9459;50.254;19.014;2023-07-24T14:58:16;14.27;;;9.70;;
18659;SDS011;9459;50.254;19.014;2023-07-24T15:00:44;11.57;;;8.77;;
18659;SDS011;9459;50.254;19.014;2023-07-24T15:03:13;12.63;;;9.23;;
18659;SDS011;9459;50.254;19.014;2023-07-24T15:05:42;11.27;;;8.18;;